createdAt,value
2022-08-29T00:00:23.472Z,18.12
2022-08-29T00:03:00.036Z,18.12
2022-08-29T00:05:33.158Z,18.18
2022-08-29T00:08:02.679Z,18.24
2022-08-29T00:10:32.836Z,18.24
2022-08-29T00:13:02.257Z,18.24
2022-08-29T00:15:30.846Z,18.29
2022-08-29T00:18:00.932Z,18.28
2022-08-29T00:20:34.549Z,18.19
2022-08-29T00:23:04.256Z,18.23
2022-08-29T00:25:33.531Z,18.34
2022-08-29T00:28:02.257Z,18.42
2022-08-29T00:30:31.161Z,18.44
2022-08-29T00:32:59.682Z,18.36
2022-08-29T00:35:32.790Z,18.17
2022-08-29T00:38:01.897Z,18.04
2022-08-29T00:40:34.550Z,18.10
2022-08-29T00:43:03.551Z,18.20
2022-08-29T00:45:33.305Z,18.26
2022-08-29T00:48:06.250Z,18.32
2022-08-29T00:50:39.968Z,18.35
2022-08-29T00:53:12.880Z,18.40
2022-08-29T00:55:42.436Z,18.35
2022-08-29T00:58:25.911Z,18.30
2022-08-29T01:00:54.771Z,18.32
2022-08-29T01:03:23.290Z,18.33
2022-08-29T01:05:53.492Z,18.27
2022-08-29T01:08:22.006Z,18.15
2022-08-29T01:11:08.012Z,18.01
2022-08-29T01:13:42.792Z,18.07
2022-08-29T01:16:13.107Z,18.06
2022-08-29T01:18:45.304Z,18.06
2022-08-29T01:21:24.905Z,17.97
2022-08-29T01:24:00.657Z,17.98
2022-08-29T01:26:31.507Z,17.88
2022-08-29T01:29:00.327Z,17.88
2022-08-29T01:31:56.068Z,17.82
2022-08-29T01:34:28.764Z,17.81
2022-08-29T01:36:59.351Z,17.81
2022-08-29T01:39:30.770Z,17.87
2022-08-29T01:42:03.857Z,17.78
2022-08-29T01:44:32.667Z,17.71
2022-08-29T01:47:03.348Z,17.69
2022-08-29T01:49:33.164Z,17.73
2022-08-29T01:52:03.252Z,17.67
2022-08-29T01:54:32.396Z,17.73
2022-08-29T01:57:02.932Z,17.76
2022-08-29T01:59:32.589Z,17.68
2022-08-29T02:02:05.566Z,17.60
2022-08-29T02:04:34.352Z,17.54
2022-08-29T02:07:03.072Z,17.56
2022-08-29T02:09:31.685Z,17.67
2022-08-29T02:12:07.061Z,17.71
2022-08-29T02:14:36.282Z,17.75
2022-08-29T02:17:07.130Z,17.81
2022-08-29T02:19:36.963Z,17.81
2022-08-29T02:22:06.071Z,17.81
2022-08-29T02:24:34.622Z,17.65
2022-08-29T02:27:05.354Z,17.50
2022-08-29T02:29:37.739Z,17.43
2022-08-29T02:32:08.550Z,17.50
2022-08-29T02:34:38.190Z,17.58
2022-08-29T02:37:07.488Z,17.59
2022-08-29T02:39:36.044Z,17.58
2022-08-29T02:42:06.925Z,17.50
2022-08-29T02:44:35.555Z,17.49
2022-08-29T02:47:04.192Z,17.50
2022-08-29T02:49:32.699Z,17.56
2022-08-29T02:52:06.575Z,17.57
2022-08-29T02:54:35.258Z,17.46
2022-08-29T02:57:05.459Z,17.46
2022-08-29T02:59:34.011Z,17.56
2022-08-29T03:02:02.716Z,17.61
2022-08-29T03:04:31.136Z,17.65
2022-08-29T03:06:59.589Z,17.63
2022-08-29T03:09:28.059Z,17.65
2022-08-29T03:11:56.664Z,17.60
2022-08-29T03:14:26.977Z,17.59
2022-08-29T03:16:55.355Z,17.57
2022-08-29T03:19:23.975Z,17.55
2022-08-29T03:21:52.580Z,17.49
2022-08-29T03:24:26.186Z,17.47
2022-08-29T03:26:56.706Z,17.43
2022-08-29T03:29:26.961Z,17.38
2022-08-29T03:31:58.328Z,17.36
2022-08-29T03:34:28.343Z,17.40
2022-08-29T03:36:57.051Z,17.43
2022-08-29T03:39:25.922Z,17.47
2022-08-29T03:41:54.638Z,17.51
2022-08-29T03:44:24.111Z,17.49
2022-08-29T03:46:54.530Z,17.40
2022-08-29T03:49:23.046Z,17.36
2022-08-29T03:51:51.507Z,17.34
2022-08-29T03:54:20.159Z,17.37
2022-08-29T03:56:49.049Z,17.38
2022-08-29T03:59:19.047Z,17.40
2022-08-29T04:01:48.506Z,17.31
2022-08-29T04:04:33.486Z,17.34
2022-08-29T04:07:02.199Z,17.34
2022-08-29T04:09:30.900Z,17.30
2022-08-29T04:12:00.066Z,17.30
2022-08-29T04:14:29.528Z,17.35
2022-08-29T04:16:58.080Z,17.35
2022-08-29T04:19:27.979Z,17.33
2022-08-29T04:21:57.168Z,17.33
2022-08-29T04:24:26.175Z,17.34
2022-08-29T04:26:54.692Z,17.38
2022-08-29T04:29:23.483Z,17.38
2022-08-29T04:31:51.959Z,17.36
2022-08-29T04:34:20.846Z,17.38
2022-08-29T04:36:50.687Z,17.39
2022-08-29T04:39:20.507Z,17.38
2022-08-29T04:41:49.039Z,17.39
2022-08-29T04:44:17.545Z,17.43
2022-08-29T04:46:46.032Z,17.41
2022-08-29T04:49:14.544Z,17.32
2022-08-29T04:51:43.205Z,17.28
2022-08-29T04:54:13.031Z,17.16
2022-08-29T04:56:47.186Z,17.04
2022-08-29T04:59:16.922Z,16.97
2022-08-29T05:01:47.100Z,17.04
2022-08-29T05:04:15.583Z,17.17
2022-08-29T05:06:44.027Z,17.30
2022-08-29T05:09:13.971Z,17.46
2022-08-29T05:11:42.780Z,17.60
2022-08-29T05:14:11.603Z,17.68
2022-08-29T05:16:40.815Z,17.71
2022-08-29T05:19:11.683Z,17.52
2022-08-29T05:21:40.911Z,17.44
2022-08-29T05:24:12.318Z,17.54
2022-08-29T05:26:45.308Z,17.65
2022-08-29T05:29:14.777Z,17.66
2022-08-29T05:31:44.683Z,17.74
2022-08-29T05:34:31.994Z,17.81
2022-08-29T05:37:04.203Z,17.74
2022-08-29T05:39:32.888Z,17.69
2022-08-29T05:42:03.315Z,17.75
2022-08-29T05:44:35.168Z,17.66
2022-08-29T05:47:05.127Z,17.65
2022-08-29T05:49:33.618Z,17.75
2022-08-29T05:52:02.037Z,17.79
2022-08-29T05:54:33.243Z,17.93
2022-08-29T05:57:03.358Z,18.02
2022-08-29T05:59:31.787Z,18.13
2022-08-29T06:02:02.262Z,18.22
2022-08-29T06:04:30.814Z,18.28
2022-08-29T06:06:59.556Z,18.29
2022-08-29T06:09:28.773Z,18.30
2022-08-29T06:11:58.479Z,18.32
2022-08-29T06:14:28.881Z,18.38
2022-08-29T06:16:57.331Z,18.45
2022-08-29T06:19:26.143Z,18.54
2022-08-29T06:21:56.316Z,18.62
2022-08-29T06:24:24.750Z,18.67
2022-08-29T06:26:53.335Z,18.72
2022-08-29T06:29:21.840Z,18.78
2022-08-29T06:31:51.666Z,18.84
2022-08-29T06:34:20.247Z,18.86
2022-08-29T06:36:48.685Z,18.86
2022-08-29T06:39:17.406Z,18.84
2022-08-29T06:41:46.011Z,18.88
2022-08-29T06:44:14.483Z,18.91
2022-08-29T06:46:44.827Z,18.96
2022-08-29T06:49:16.615Z,19.02
2022-08-29T06:51:49.380Z,19.07
2022-08-29T06:54:19.360Z,19.13
2022-08-29T06:56:48.526Z,19.16
2022-08-29T06:59:17.044Z,19.19
2022-08-29T07:01:47.492Z,19.23
2022-08-29T07:04:20.715Z,19.25
2022-08-29T07:06:50.132Z,19.27
2022-08-29T07:09:19.075Z,19.31
2022-08-29T07:11:47.517Z,19.32
2022-08-29T07:14:16.109Z,19.36
2022-08-29T07:16:44.609Z,19.41
2022-08-29T07:19:13.011Z,19.48
2022-08-29T07:21:42.879Z,19.52
2022-08-29T07:24:11.541Z,19.58
2022-08-29T07:26:43.986Z,19.66
2022-08-29T07:29:16.160Z,19.72
2022-08-29T07:31:45.001Z,19.78
2022-08-29T07:34:13.475Z,19.76
2022-08-29T07:36:43.579Z,19.77
2022-08-29T07:39:14.984Z,19.84
2022-08-29T07:41:45.050Z,19.93
2022-08-29T07:44:14.892Z,20.00
2022-08-29T07:46:44.281Z,20.08
2022-08-29T07:49:12.923Z,20.15
2022-08-29T07:51:44.668Z,20.22
2022-08-29T07:54:16.715Z,20.28
2022-08-29T07:56:46.096Z,20.32
2022-08-29T07:59:15.220Z,20.38
2022-08-29T08:01:43.958Z,20.46
2022-08-29T08:04:13.645Z,20.52
2022-08-29T08:06:45.271Z,20.54
2022-08-29T08:09:15.371Z,20.60
2022-08-29T08:11:44.339Z,20.65
2022-08-29T08:14:13.860Z,20.71
2022-08-29T08:16:44.104Z,20.79
2022-08-29T08:19:14.250Z,20.86
2022-08-29T08:21:49.311Z,20.95
2022-08-29T08:24:19.993Z,21.03
2022-08-29T08:26:49.668Z,21.08
2022-08-29T08:29:19.057Z,21.13
2022-08-29T08:31:49.560Z,21.18
2022-08-29T08:34:19.017Z,21.20
2022-08-29T08:36:48.871Z,21.26
2022-08-29T08:39:17.341Z,21.36
2022-08-29T08:41:53.062Z,21.43
2022-08-29T08:44:49.530Z,21.53
2022-08-29T08:47:26.076Z,21.59
2022-08-29T08:50:00.108Z,21.65
2022-08-29T08:52:38.677Z,21.70
2022-08-29T08:55:21.339Z,21.76
2022-08-29T08:58:00.139Z,21.79
2022-08-29T09:00:32.930Z,21.87
2022-08-29T09:03:09.774Z,21.92
2022-08-29T09:05:50.850Z,21.99
2022-08-29T09:08:30.726Z,22.07
2022-08-29T09:11:04.250Z,22.14
2022-08-29T09:13:48.020Z,22.21
2022-08-29T09:16:25.019Z,22.29
2022-08-29T09:18:54.668Z,22.35
2022-08-29T09:21:40.546Z,22.44
2022-08-29T09:24:18.393Z,22.51
2022-08-29T09:26:46.785Z,22.55
2022-08-29T09:29:21.099Z,22.63
2022-08-29T09:32:08.486Z,22.70
2022-08-29T09:35:04.879Z,22.75
2022-08-29T09:37:32.047Z,22.79
2022-08-29T09:40:09.945Z,22.86
2022-08-29T09:42:42.778Z,22.97
2022-08-29T09:45:19.971Z,23.09
2022-08-29T09:47:48.375Z,23.13
2022-08-29T09:50:24.617Z,23.18
2022-08-29T09:52:55.705Z,23.27
2022-08-29T09:55:32.523Z,23.33
2022-08-29T09:58:05.553Z,23.38
2022-08-29T10:00:35.966Z,23.38
2022-08-29T10:03:07.949Z,23.47
2022-08-29T10:05:44.661Z,23.56
2022-08-29T10:08:35.063Z,23.66
2022-08-29T10:11:07.205Z,23.75
2022-08-29T10:13:52.278Z,23.84
2022-08-29T10:16:34.317Z,23.94
2022-08-29T10:19:06.010Z,23.97
2022-08-29T10:21:41.555Z,24.07
2022-08-29T10:24:21.839Z,24.20
2022-08-29T10:27:00.765Z,24.34
2022-08-29T10:29:48.267Z,24.55
2022-08-29T10:32:29.440Z,24.75
2022-08-29T10:35:07.785Z,24.80
2022-08-29T10:37:47.951Z,24.87
2022-08-29T10:40:25.668Z,24.95
2022-08-29T10:43:17.469Z,25.08
2022-08-29T10:45:57.822Z,25.18
2022-08-29T10:48:31.028Z,25.27
2022-08-29T10:51:14.285Z,25.30
2022-08-29T10:53:50.691Z,25.19
2022-08-29T10:56:23.883Z,25.19
2022-08-29T10:59:04.288Z,25.26
2022-08-29T11:01:41.910Z,25.37
2022-08-29T11:04:18.540Z,25.53
2022-08-29T11:06:54.145Z,25.62
2022-08-29T11:09:27.572Z,25.66
2022-08-29T11:12:06.956Z,25.72
2022-08-29T11:14:42.119Z,25.81
2022-08-29T11:17:14.900Z,25.89
2022-08-29T11:19:53.932Z,25.97
2022-08-29T11:22:27.204Z,25.98
2022-08-29T11:25:04.207Z,25.97
2022-08-29T11:27:39.708Z,25.99
2022-08-29T11:30:17.748Z,26.09
2022-08-29T11:33:00.337Z,26.18
2022-08-29T11:35:40.359Z,26.33
2022-08-29T11:38:48.380Z,26.48
2022-08-29T11:41:30.248Z,26.60
2022-08-29T11:44:15.328Z,26.64
2022-08-29T11:46:49.401Z,26.73
2022-08-29T11:49:44.401Z,26.76
2022-08-29T11:52:22.462Z,26.86
2022-08-29T11:55:16.379Z,26.87
2022-08-29T11:57:53.864Z,26.91
2022-08-29T12:00:35.895Z,27.04
2022-08-29T12:03:28.302Z,27.03
2022-08-29T12:06:02.397Z,27.04
2022-08-29T12:08:38.219Z,27.13
2022-08-29T12:11:07.681Z,27.22
2022-08-29T12:14:03.634Z,27.30
2022-08-29T12:16:49.801Z,27.42
2022-08-29T12:19:48.784Z,27.51
2022-08-29T12:22:53.764Z,27.60
2022-08-29T12:25:44.961Z,27.61
2022-08-29T12:28:39.049Z,27.65
2022-08-29T12:31:13.140Z,27.65
2022-08-29T12:33:56.669Z,27.74
2022-08-29T12:36:38.293Z,27.83
2022-08-29T12:39:23.993Z,27.93
2022-08-29T12:42:13.698Z,28.01
2022-08-29T12:44:44.490Z,27.90
2022-08-29T12:47:15.377Z,27.76
2022-08-29T12:49:50.863Z,27.63
2022-08-29T12:52:26.860Z,27.62
2022-08-29T12:54:56.770Z,27.74
2022-08-29T12:57:30.776Z,27.81
2022-08-29T13:00:00.437Z,27.94
2022-08-29T13:02:32.519Z,28.06
2022-08-29T13:05:01.171Z,28.19
2022-08-29T13:07:31.648Z,28.31
2022-08-29T13:10:02.541Z,28.30
2022-08-29T13:12:33.524Z,28.39
2022-08-29T14:06:13.551Z,27.82
2022-08-29T14:08:45.146Z,27.55
2022-08-29T14:11:14.200Z,27.42
2022-08-29T14:13:42.976Z,27.39
2022-08-29T14:16:11.739Z,27.49
2022-08-29T14:18:40.339Z,27.68
2022-08-29T14:21:10.503Z,27.83
2022-08-29T14:23:38.980Z,27.94
2022-08-29T14:26:07.744Z,28.05
2022-08-29T14:28:40.010Z,28.18
2022-08-29T14:31:10.105Z,28.26
2022-08-29T14:33:38.576Z,28.31
2022-08-29T14:36:07.765Z,28.31
2022-08-29T14:38:37.623Z,28.23
2022-08-29T14:41:06.007Z,28.10
2022-08-29T14:43:39.262Z,27.92
2022-08-29T14:46:08.589Z,27.78
2022-08-29T14:48:37.017Z,27.76
2022-08-29T14:51:05.528Z,27.83
2022-08-29T14:53:37.821Z,27.92
2022-08-29T14:56:46.938Z,28.01
2022-08-29T14:59:14.268Z,28.06
2022-08-29T15:01:43.069Z,28.10
2022-08-29T15:04:11.620Z,28.08
2022-08-29T15:06:42.629Z,28.13
2022-08-29T15:09:11.160Z,28.19
2022-08-29T15:11:40.939Z,28.28
2022-08-29T15:14:10.234Z,28.34
2022-08-29T15:16:39.118Z,28.38
2022-08-29T15:21:56.072Z,28.43
2022-08-29T15:24:25.427Z,28.46
2022-08-29T15:27:00.127Z,28.46
2022-08-29T15:29:28.972Z,28.40
2022-08-29T15:31:58.136Z,28.36
2022-08-29T15:34:27.581Z,28.32
2022-08-29T15:36:57.708Z,28.24
2022-08-29T15:39:27.991Z,28.10
2022-08-29T15:41:57.453Z,27.96
2022-08-29T15:44:29.039Z,27.82
2022-08-29T15:46:57.689Z,27.68
2022-08-29T15:49:26.951Z,27.55
2022-08-29T15:51:56.099Z,27.46
2022-08-29T15:54:26.480Z,27.38
2022-08-29T15:56:55.631Z,27.30
2022-08-29T15:59:41.203Z,27.28
2022-08-29T16:02:14.569Z,27.32
2022-08-29T16:04:47.360Z,27.40
2022-08-29T16:07:16.915Z,27.46
2022-08-29T16:09:46.095Z,27.48
2022-08-29T16:12:14.713Z,27.52
2022-08-29T16:15:00.423Z,27.51
2022-08-29T16:17:31.669Z,27.50
2022-08-29T16:20:02.512Z,27.49
2022-08-29T16:22:32.422Z,27.50
2022-08-29T16:25:01.407Z,27.50
2022-08-29T16:27:29.843Z,27.47
2022-08-29T16:29:58.729Z,27.43
2022-08-29T16:32:27.279Z,27.40
2022-08-29T16:34:58.698Z,27.36
2022-08-29T16:37:27.192Z,27.32
2022-08-29T16:39:56.109Z,27.27
2022-08-29T16:42:29.943Z,27.24
2022-08-29T16:44:59.845Z,27.18
2022-08-29T16:47:28.752Z,27.13
2022-08-29T16:49:58.616Z,27.07
2022-08-29T16:52:27.131Z,27.06
2022-08-29T16:54:58.855Z,27.02
2022-08-29T16:57:27.286Z,26.96
2022-08-29T16:59:55.665Z,26.92
2022-08-29T17:02:24.844Z,26.88
2022-08-29T17:04:53.377Z,26.85
2022-08-29T17:07:32.425Z,26.80
2022-08-29T17:10:01.739Z,26.75
2022-08-29T17:12:29.959Z,26.69
2022-08-29T17:14:57.987Z,26.62
2022-08-29T17:17:26.664Z,26.56
2022-08-29T17:19:55.125Z,26.48
2022-08-29T17:22:25.065Z,26.41
2022-08-29T17:24:53.631Z,26.31
2022-08-29T17:27:23.933Z,26.23
2022-08-29T17:29:54.187Z,26.15
2022-08-29T17:32:22.964Z,26.06
2022-08-29T17:34:51.471Z,25.98
2022-08-29T17:37:19.932Z,25.90
2022-08-29T17:39:50.018Z,25.82
2022-08-29T17:42:18.521Z,25.75
2022-08-29T17:44:48.208Z,25.67
2022-08-29T17:47:16.972Z,25.61
2022-08-29T17:49:45.828Z,25.54
2022-08-29T17:52:14.443Z,25.46
2022-08-29T17:54:42.997Z,25.38
2022-08-29T17:57:12.967Z,25.33
2022-08-29T17:59:42.532Z,25.28
2022-08-29T18:02:11.114Z,25.22
2022-08-29T18:04:39.579Z,25.13
2022-08-29T18:07:07.995Z,25.00
2022-08-29T18:09:36.419Z,24.86
2022-08-29T18:12:05.396Z,24.68
2022-08-29T18:14:35.361Z,24.56
2022-08-29T18:17:03.950Z,24.57
2022-08-29T18:19:32.488Z,24.55
2022-08-29T18:22:01.017Z,24.49
2022-08-29T18:24:29.561Z,24.41
2022-08-29T18:26:58.104Z,24.26
2022-08-29T18:29:26.746Z,24.12
2022-08-29T18:31:56.664Z,23.97
2022-08-29T18:34:26.029Z,23.77
2022-08-29T18:36:54.628Z,23.62
2022-08-29T18:39:23.055Z,23.55
2022-08-29T18:41:52.159Z,23.55
2022-08-29T18:44:20.624Z,23.46
2022-08-29T18:46:53.179Z,23.33
2022-08-29T18:49:43.780Z,23.15
2022-08-29T18:52:12.692Z,23.04
2022-08-29T18:54:41.468Z,23.01
2022-08-29T18:57:11.613Z,23.11
2022-08-29T18:59:41.073Z,23.19
2022-08-29T19:02:11.684Z,23.21
2022-08-29T19:04:42.171Z,23.16
2022-08-29T19:07:10.604Z,23.11
2022-08-29T19:09:39.099Z,23.12
2022-08-29T19:12:07.631Z,23.12
2022-08-29T19:14:45.811Z,23.12
2022-08-29T19:17:14.616Z,23.03
2022-08-29T19:20:02.795Z,22.94
2022-08-29T19:22:38.762Z,22.80
2022-08-29T19:25:09.148Z,22.76
2022-08-29T19:27:45.135Z,22.74
2022-08-29T19:30:16.100Z,22.71
2022-08-29T19:32:45.980Z,22.68
2022-08-29T19:35:16.504Z,22.65
2022-08-29T19:37:45.481Z,22.61
2022-08-29T19:40:16.094Z,22.54
2022-08-29T19:42:45.950Z,22.48
2022-08-29T19:45:19.196Z,22.33
2022-08-29T19:47:49.454Z,22.20
2022-08-29T19:50:22.652Z,22.13
2022-08-29T19:52:51.153Z,22.06
2022-08-29T19:55:21.733Z,22.13
2022-08-29T19:57:52.883Z,22.09
2022-08-29T20:00:24.895Z,21.99
2022-08-29T20:02:54.037Z,21.91
2022-08-29T20:05:24.503Z,21.88
2022-08-29T20:07:53.536Z,21.85
2022-08-29T20:10:24.997Z,21.70
2022-08-29T20:12:55.044Z,21.67
2022-08-29T20:15:30.583Z,21.66
2022-08-29T20:18:00.195Z,21.76
2022-08-29T20:20:34.487Z,21.83
2022-08-29T20:23:03.195Z,21.87
2022-08-29T20:25:33.584Z,21.86
2022-08-29T20:28:03.046Z,21.81
2022-08-29T20:30:35.529Z,21.69
2022-08-29T20:33:04.726Z,21.60
2022-08-29T20:35:53.756Z,21.53
2022-08-29T20:38:22.212Z,21.52
2022-08-29T20:40:50.653Z,21.50
2022-08-29T20:43:20.404Z,21.54
2022-08-29T20:45:49.656Z,21.57
2022-08-29T20:48:18.261Z,21.61
2022-08-29T20:50:48.657Z,21.53
2022-08-29T20:53:32.464Z,21.34
2022-08-29T20:56:05.709Z,21.14
2022-08-29T20:58:35.598Z,21.15
2022-08-29T21:01:04.749Z,21.14
2022-08-29T21:03:50.769Z,21.03
2022-08-29T21:06:23.573Z,20.91
2022-08-29T21:08:52.315Z,20.82
2022-08-29T21:11:21.012Z,20.77
2022-08-29T21:13:53.337Z,20.80
2022-08-29T21:16:32.016Z,20.84
2022-08-29T21:19:00.913Z,20.84
2022-08-29T21:21:30.796Z,20.82
2022-08-29T21:23:59.283Z,20.73
2022-08-29T21:26:27.728Z,20.68
2022-08-29T21:28:56.444Z,20.75
2022-08-29T21:31:25.049Z,20.79
2022-08-29T21:33:53.632Z,20.73
2022-08-29T21:36:25.837Z,20.64
2022-08-29T21:38:58.244Z,20.47
2022-08-29T21:41:27.577Z,20.21
2022-08-29T21:43:56.465Z,20.02
2022-08-29T21:46:27.002Z,19.97
2022-08-29T21:48:57.105Z,20.06
2022-08-29T21:51:26.718Z,20.13
2022-08-29T21:53:58.352Z,20.16
2022-08-29T21:56:29.576Z,20.21
2022-08-29T21:58:58.330Z,20.30
2022-08-29T22:01:30.439Z,20.33
2022-08-29T22:04:00.647Z,20.34
2022-08-29T22:06:30.138Z,20.33
2022-08-29T22:09:00.276Z,20.27
2022-08-29T22:11:37.550Z,20.17
2022-08-29T22:14:07.309Z,20.01
2022-08-29T22:16:36.967Z,19.94
2022-08-29T22:19:08.785Z,19.89
2022-08-29T22:21:39.517Z,19.84
2022-08-29T22:24:10.617Z,19.84
2022-08-29T22:26:40.025Z,19.81
2022-08-29T22:29:09.832Z,19.81
2022-08-29T22:31:42.624Z,19.88
2022-08-29T22:34:11.508Z,19.92
2022-08-29T22:36:39.972Z,19.98
2022-08-29T22:39:09.931Z,20.08
2022-08-29T22:41:38.550Z,20.17
2022-08-29T22:46:56.327Z,20.31
2022-08-29T22:49:27.620Z,20.31
2022-08-29T22:52:01.649Z,20.29
2022-08-29T22:54:37.711Z,20.27
2022-08-29T22:57:09.632Z,20.26
2022-08-29T22:59:39.441Z,20.26
2022-08-29T23:02:08.941Z,20.25
2022-08-29T23:04:37.807Z,20.21
2022-08-29T23:07:07.329Z,20.13
2022-08-29T23:09:37.504Z,20.06
2022-08-29T23:12:07.406Z,20.02
2022-08-29T23:14:37.448Z,20.01
2022-08-29T23:17:06.527Z,19.98
2022-08-29T23:19:35.520Z,20.00
2022-08-29T23:22:04.743Z,19.96
2022-08-29T23:24:33.876Z,19.91
2022-08-29T23:27:03.929Z,19.82
2022-08-29T23:29:34.140Z,19.73
2022-08-29T23:32:10.343Z,19.66
2022-08-29T23:34:38.943Z,19.58
2022-08-29T23:37:07.472Z,19.50
2022-08-29T23:39:36.064Z,19.48
2022-08-29T23:42:06.815Z,19.51
2022-08-29T23:44:35.780Z,19.51
2022-08-29T23:47:04.221Z,19.47
2022-08-29T23:49:32.608Z,19.38
2022-08-29T23:52:01.144Z,19.33
2022-08-29T23:54:31.350Z,19.35
2022-08-29T23:57:00.053Z,19.34
2022-08-29T23:59:43.788Z,19.27
